createdAt,value
2022-08-17T00:04:27.651Z,25.30
2022-08-17T00:07:00.076Z,25.30
2022-08-17T00:12:42.620Z,25.20
2022-08-17T00:15:18.621Z,25.10
2022-08-17T00:17:51.134Z,25.00
2022-08-17T00:20:23.320Z,25.00
2022-08-17T00:23:14.065Z,24.90
2022-08-17T00:25:45.876Z,24.90
2022-08-17T00:28:20.935Z,24.80
2022-08-17T00:30:53.027Z,24.70
2022-08-17T00:33:26.448Z,24.60
2022-08-17T00:36:06.331Z,24.50
2022-08-17T00:38:38.411Z,24.60
2022-08-17T00:41:17.744Z,24.50
2022-08-17T00:43:48.732Z,24.50
2022-08-17T00:46:24.569Z,24.30
2022-08-17T00:48:54.316Z,24.30
2022-08-17T00:52:12.207Z,24.30
2022-08-17T00:54:42.525Z,24.30
2022-08-17T00:57:40.972Z,24.10
2022-08-17T01:03:26.476Z,24.10
2022-08-17T01:05:58.839Z,24.00
2022-08-17T01:08:31.228Z,24.00
2022-08-17T01:11:06.467Z,23.90
2022-08-17T01:13:46.555Z,23.90
2022-08-17T01:16:20.626Z,23.80
2022-08-17T01:18:52.183Z,23.80
2022-08-17T01:22:19.357Z,23.80
2022-08-17T01:24:56.865Z,23.80
2022-08-17T01:27:24.607Z,23.60
2022-08-17T01:30:58.000Z,23.70
2022-08-17T01:37:56.592Z,23.50
2022-08-17T01:40:33.581Z,23.50
2022-08-17T01:43:08.299Z,23.40
2022-08-17T01:45:48.828Z,23.30
2022-08-17T01:48:37.273Z,23.30
2022-08-17T01:51:16.421Z,23.30
2022-08-17T01:54:05.672Z,23.20
2022-08-17T01:56:47.483Z,23.10
2022-08-17T02:01:43.735Z,22.90
2022-08-17T02:04:14.143Z,22.90
2022-08-17T02:14:33.455Z,22.80
2022-08-17T02:17:00.623Z,22.80
2022-08-17T02:19:30.729Z,22.80
2022-08-17T02:22:00.282Z,22.90
2022-08-17T02:25:00.784Z,22.80
2022-08-17T02:32:27.934Z,23.00
2022-08-17T02:34:56.835Z,23.00
2022-08-17T02:37:26.947Z,23.00
2022-08-17T02:39:59.573Z,23.00
2022-08-17T02:42:45.345Z,23.10
2022-08-17T02:45:16.682Z,23.10
2022-08-17T02:50:23.786Z,23.10
2022-08-17T02:53:01.851Z,23.10
2022-08-17T02:55:36.594Z,23.10
2022-08-17T02:58:11.678Z,23.10
2022-08-17T03:00:44.370Z,23.10
2022-08-17T03:08:21.159Z,23.10
2022-08-17T03:10:57.591Z,23.10
2022-08-17T03:13:27.680Z,23.10
2022-08-17T03:15:59.000Z,23.10
2022-08-17T03:18:31.365Z,23.10
2022-08-17T03:21:13.374Z,23.10
2022-08-17T03:29:00.841Z,23.10
2022-08-17T03:31:31.747Z,23.20
2022-08-17T03:34:01.959Z,23.10
2022-08-17T03:36:36.152Z,23.20
2022-08-17T03:39:03.679Z,23.10
2022-08-17T03:41:40.611Z,23.20
2022-08-17T03:44:07.516Z,23.10
2022-08-17T03:46:56.324Z,23.20
2022-08-17T03:49:29.784Z,23.10
2022-08-17T03:52:26.999Z,23.10
2022-08-17T03:55:12.897Z,23.10
2022-08-17T03:57:42.286Z,23.10
2022-08-17T04:00:20.189Z,23.00
2022-08-17T04:05:23.385Z,22.90
2022-08-17T04:15:31.027Z,22.80
2022-08-17T04:17:58.073Z,22.90
2022-08-17T04:20:30.504Z,22.80
2022-08-17T04:25:38.368Z,22.80
2022-08-17T04:28:07.644Z,22.80
2022-08-17T04:30:45.407Z,22.80
2022-08-17T04:33:14.137Z,22.80
2022-08-17T04:35:51.543Z,22.80
2022-08-17T04:38:21.006Z,22.80
2022-08-17T04:41:12.509Z,22.70
2022-08-17T04:43:55.404Z,22.80
2022-08-17T04:46:31.262Z,22.90
2022-08-17T04:48:58.650Z,22.80
2022-08-17T04:52:00.079Z,22.90
2022-08-17T04:54:49.096Z,22.90
2022-08-17T04:57:24.628Z,22.90
2022-08-17T05:02:28.383Z,22.90
2022-08-17T05:05:22.163Z,22.90
2022-08-17T05:07:57.099Z,23.00
2022-08-17T05:13:21.762Z,23.10
2022-08-17T05:15:57.367Z,23.10
2022-08-17T05:18:27.205Z,23.10
2022-08-17T05:20:56.878Z,23.20
2022-08-17T05:23:35.546Z,23.30
2022-08-17T05:28:59.709Z,23.40
2022-08-17T05:36:53.581Z,23.70
2022-08-17T05:39:20.414Z,23.70
2022-08-17T05:41:52.487Z,23.80
2022-08-17T05:44:26.615Z,23.90
2022-08-17T05:47:05.205Z,24.00
2022-08-17T05:49:44.686Z,24.00
2022-08-17T05:53:04.006Z,24.10
2022-08-17T05:55:41.127Z,24.20
2022-08-17T05:58:43.445Z,24.30
2022-08-17T06:01:33.729Z,24.30
2022-08-17T06:06:44.904Z,24.60
2022-08-17T06:09:48.827Z,24.70
2022-08-17T06:12:48.411Z,24.70
2022-08-17T06:15:42.942Z,24.90
2022-08-17T06:18:10.678Z,25.00
2022-08-17T06:21:14.979Z,25.20
2022-08-17T06:24:27.613Z,25.30
2022-08-17T06:27:01.699Z,25.50
2022-08-17T06:30:10.268Z,25.40
2022-08-17T06:32:43.466Z,25.70
2022-08-17T06:35:31.813Z,25.70
2022-08-17T06:41:01.712Z,25.90
2022-08-17T06:43:52.627Z,25.90
2022-08-17T06:46:24.125Z,26.00
2022-08-17T06:49:40.093Z,26.10
2022-08-17T06:52:51.360Z,26.10
2022-08-17T06:55:41.453Z,26.10
2022-08-17T07:01:02.326Z,26.10
2022-08-17T07:04:11.600Z,26.20
2022-08-17T07:07:09.331Z,26.20
2022-08-17T07:09:39.321Z,26.30
2022-08-17T07:12:16.051Z,26.30
2022-08-17T07:15:16.234Z,26.20
2022-08-17T07:17:58.190Z,26.40
2022-08-17T07:20:26.955Z,26.40
2022-08-17T07:23:17.004Z,26.40
2022-08-17T07:25:44.556Z,26.50
2022-08-17T07:30:52.476Z,26.60
2022-08-17T07:41:11.736Z,26.80
2022-08-17T07:43:52.606Z,26.90
2022-08-17T07:46:32.874Z,26.90
2022-08-17T07:49:31.739Z,26.90
2022-08-17T07:52:50.948Z,27.00
2022-08-17T08:01:03.036Z,27.30
2022-08-17T08:03:43.943Z,27.30
2022-08-17T08:06:38.243Z,27.40
2022-08-17T08:09:31.534Z,27.40
2022-08-17T08:12:34.941Z,27.50
2022-08-17T08:15:23.365Z,27.50
2022-08-17T08:18:54.051Z,27.60
2022-08-17T08:25:22.582Z,27.80
2022-08-17T08:28:32.369Z,27.70
2022-08-17T08:34:09.469Z,27.70
2022-08-17T08:40:16.543Z,27.60
2022-08-17T08:43:13.094Z,27.70
